Eagle Creek, Indiana
Current Conditions -  °F | °C
As of 6:54 PM on Monday 22 Dec 2014 (Local Time) from KIND Reporting Station
Light Rain Light Rain  
Wind Chill: 35°   Ceiling: 6500
Heat Index: 42°   Visibility: 8mi
Dew Point: 38°   Wind: 15mph
Humidity: 85%   Direction: 120°ESE
Pressure: 29.7"   Gusts: NA
Location:  39.7691°N, 86.1583°W
Report Text: KIND 222354Z 12013KT 8SM -RA BKN065 OVC085 06/03 A2970 RMK AO2 SLP062 P0003 60004 T00560033 10067 20039 58017
Loading
Personal Weather Stations






























Interactive Weather Map New forecast layout! Learn more

10-Day Weather Forecast

Advertisements
Track Severe Weather on mobile